Aviation Digital Data Service (ADDS)

Output produced by TAFs form (2141 UTC 28 March 2017)
found at http://aviationweather.gov/adds/tafs/
 
KROW 281748Z 2818/2918 06010KT P6SM BKN110 
     FM282000 21022G32KT P6SM VCSH BKN100 
     FM290100 29012G22KT P6SM VCSH SCT060 BKN080 
     FM290500 32013KT P6SM -SHRA OVC030 
     FM291000 35020G28KT P6SM VCSH OVC030